Time;durP1;ratioP1;P1;durP2;ratioP2;P2;SDS_P1;SDS_P2;PMS_P1;PMS_P2;Temp;Humidity;BMP_temperature;BMP_pressure;BME280_temperature;BME280_humidity;BME280_pressure;Samples;Min_cycle;Max_cycle;Signal;HPM_P1;HPM_P2
2022/04/17 00:01:28;;;;;;;12.93;7.15;;;;;;;8.63;46.05;102893.25;5056738;28;20029;-63
2022/04/17 00:03:53;;;;;;;11.23;7.60;;;;;;;8.65;46.55;102894.19;5056634;28;20406;-64
2022/04/17 00:06:19;;;;;;;10.68;7.57;;;;;;;8.57;47.49;102888.75;5056608;28;20036;-64
2022/04/17 00:08:44;;;;;;;10.23;7.20;;;;;;;8.61;47.55;102888.00;5055743;28;20029;-63
2022/04/17 00:11:09;;;;;;;10.52;7.65;;;;;;;8.54;46.93;102886.03;5056656;28;20025;-64
2022/04/17 00:13:35;;;;;;;13.63;8.07;;;;;;;8.39;46.67;102875.19;5056479;28;20353;-64
2022/04/17 00:16:00;;;;;;;10.40;7.50;;;;;;;8.43;46.53;102886.59;5056435;28;20024;-64
2022/04/17 00:18:26;;;;;;;11.05;7.30;;;;;;;8.40;46.39;102887.38;5055762;28;20041;-65
2022/04/17 00:20:51;;;;;;;10.30;7.75;;;;;;;8.38;47.03;102883.84;5056015;28;20032;-64
2022/04/17 00:23:17;;;;;;;9.88;7.57;;;;;;;8.29;47.23;102880.97;5056292;28;20033;-64
2022/04/17 00:25:42;;;;;;;10.68;7.53;;;;;;;8.29;47.87;102879.25;5056482;28;20344;-64
2022/04/17 00:28:08;;;;;;;11.00;7.05;;;;;;;8.18;50.53;102883.25;5056907;28;20063;-65
2022/04/17 00:30:33;;;;;;;11.98;7.97;;;;;;;8.03;52.31;102872.38;5056517;28;20079;-64
2022/04/17 00:32:59;;;;;;;10.48;7.32;;;;;;;8.01;52.90;102887.06;5055665;28;20081;-64
2022/04/17 00:35:24;;;;;;;9.60;6.78;;;;;;;7.93;51.23;102881.66;5056198;28;20124;-64
2022/04/17 00:37:50;;;;;;;9.75;7.30;;;;;;;7.88;52.65;102890.16;5056104;28;20064;-64
2022/04/17 00:40:15;;;;;;;11.23;7.10;;;;;;;7.75;53.33;102883.69;5056035;28;20142;-63
2022/04/17 00:42:41;;;;;;;9.68;7.15;;;;;;;7.69;52.53;102891.31;5056044;28;20044;-64
2022/04/17 00:45:07;;;;;;;10.50;8.18;;;;;;;7.61;54.23;102891.09;5056072;28;20411;-63
2022/04/17 00:47:32;;;;;;;11.05;7.50;;;;;;;7.47;54.92;102888.84;5055850;28;20429;-64
2022/04/17 00:49:58;;;;;;;11.95;7.47;;;;;;;7.39;55.40;102882.53;5054698;28;20033;-63
2022/04/17 00:52:23;;;;;;;13.35;7.70;;;;;;;7.33;55.89;102873.69;5055808;28;20037;-64
2022/04/17 00:54:49;;;;;;;12.50;7.53;;;;;;;7.33;56.65;102876.28;5055873;28;20341;-64
2022/04/17 00:57:16;;;;;;;12.13;8.38;;;;;;;7.20;57.14;102881.03;5055734;28;20090;-64
2022/04/17 00:59:42;;;;;;;11.73;7.53;;;;;;;7.20;54.60;102874.13;5055911;28;20025;-64
2022/04/17 01:02:09;;;;;;;11.48;7.18;;;;;;;7.20;57.04;102881.94;5055341;28;20506;-64
2022/04/17 01:04:34;;;;;;;10.30;7.22;;;;;;;7.15;57.46;102880.88;5055340;28;20067;-63
2022/04/17 01:07:00;;;;;;;10.10;7.50;;;;;;;7.07;58.21;102890.19;5055360;28;20024;-64
2022/04/17 01:09:26;;;;;;;9.90;7.07;;;;;;;7.04;55.54;102881.38;5055494;28;20037;-64
2022/04/17 01:11:52;;;;;;;9.98;7.47;;;;;;;7.03;57.05;102880.47;5055733;28;20032;-63
2022/04/17 01:14:17;;;;;;;11.30;7.22;;;;;;;7.04;54.91;102868.34;5055425;28;20033;-64
2022/04/17 01:16:43;;;;;;;10.40;6.93;;;;;;;6.96;56.39;102874.16;5055124;28;20076;-64
2022/04/17 01:19:11;;;;;;;9.02;7.18;;;;;;;6.94;56.45;102869.75;5055274;28;20041;-63
2022/04/17 01:21:47;;;;;;;9.38;6.70;;;;;;;6.90;55.37;102875.69;5061291;28;20043;-63
2022/04/17 01:27:01;;;;;;;10.45;7.15;;;;;;;6.78;57.72;102883.94;5075498;28;20040;-63
2022/04/17 01:29:39;;;;;;;10.55;7.20;;;;;;;6.74;58.24;102883.81;5075070;28;20039;-64
2022/04/17 01:32:06;;;;;;;10.43;6.90;;;;;;;6.68;57.92;102878.38;5075363;28;20053;-63
2022/04/17 01:34:32;;;;;;;10.93;7.10;;;;;;;6.54;59.22;102871.00;5075087;28;20028;-64
2022/04/17 01:36:59;;;;;;;9.32;7.00;;;;;;;6.55;56.37;102890.97;5075191;28;20044;-63
2022/04/17 01:39:24;;;;;;;9.77;6.07;;;;;;;6.39;55.68;102874.75;5075458;28;20122;-64
2022/04/17 01:41:51;;;;;;;11.75;7.05;;;;;;;6.30;56.88;102888.28;5074791;28;20159;-63
2022/04/17 01:44:16;;;;;;;8.68;6.40;;;;;;;6.26;58.51;102883.81;5075068;28;20083;-64
2022/04/17 01:46:42;;;;;;;10.85;7.13;;;;;;;6.22;56.84;102887.13;5075003;28;20037;-64
2022/04/17 01:49:08;;;;;;;10.13;6.50;;;;;;;6.09;56.55;102885.78;5075099;28;20043;-63
2022/04/17 01:51:38;;;;;;;9.52;6.90;;;;;;;6.05;58.49;102886.50;5075095;28;20028;-64
2022/04/17 01:54:03;;;;;;;8.35;6.68;;;;;;;6.07;58.70;102886.53;5075145;28;20347;-63
2022/04/17 01:56:28;;;;;;;9.50;6.40;;;;;;;6.02;57.42;102883.78;5074834;28;20033;-63
2022/04/17 01:58:54;;;;;;;10.90;7.13;;;;;;;5.89;57.71;102873.72;5075019;28;20033;-64
2022/04/17 02:01:19;;;;;;;10.32;7.05;;;;;;;5.81;59.84;102878.63;5075682;28;20334;-64
2022/04/17 02:03:45;;;;;;;10.23;7.20;;;;;;;5.85;60.07;102877.91;5079050;28;20044;-64
2022/04/17 02:06:10;;;;;;;9.25;6.70;;;;;;;5.67;59.35;102859.03;5079108;28;20028;-62
2022/04/17 02:08:35;;;;;;;10.95;7.38;;;;;;;5.70;61.24;102869.53;5079018;28;20398;-64
2022/04/17 02:11:00;;;;;;;8.68;7.05;;;;;;;5.63;60.47;102858.84;5078659;28;20031;-64
2022/04/17 02:13:27;;;;;;;10.00;6.65;;;;;;;5.73;60.58;102872.22;5078866;28;20032;-64
2022/04/17 02:15:53;;;;;;;9.07;6.60;;;;;;;5.76;60.29;102874.94;5078987;28;20098;-64
2022/04/17 02:18:21;;;;;;;9.60;6.82;;;;;;;5.76;59.62;102876.66;5078869;28;20033;-64
2022/04/17 02:20:47;;;;;;;12.63;6.88;;;;;;;5.68;60.18;102870.31;5078740;28;20328;-63
2022/04/17 02:23:14;;;;;;;9.15;6.53;;;;;;;5.62;61.66;102873.53;5078098;28;20107;-63
2022/04/17 02:25:39;;;;;;;9.73;6.63;;;;;;;5.64;60.98;102873.59;5078476;28;20055;-65
2022/04/17 02:28:05;;;;;;;9.35;6.70;;;;;;;5.60;59.53;102870.88;5078359;28;20112;-65
2022/04/17 02:30:30;;;;;;;11.40;7.10;;;;;;;5.62;60.17;102863.16;5078678;28;20047;-67
2022/04/17 02:32:55;;;;;;;8.45;6.68;;;;;;;5.65;61.12;102860.66;5078176;28;20098;-64
2022/04/17 02:35:21;;;;;;;9.35;6.55;;;;;;;5.61;61.64;102861.38;5078467;28;20024;-63
2022/04/17 02:37:46;;;;;;;9.40;6.68;;;;;;;5.40;60.78;102837.16;5078477;28;20166;-64
2022/04/17 02:40:11;;;;;;;10.45;6.95;;;;;;;5.45;60.94;102848.59;5078266;28;20028;-63
2022/04/17 02:42:37;;;;;;;8.77;7.10;;;;;;;5.55;59.69;102859.41;5078034;28;20431;-62
2022/04/17 02:45:03;;;;;;;9.48;7.40;;;;;;;5.57;60.80;102854.28;5078235;28;20024;-62
2022/04/17 02:47:43;;;;;;;9.63;6.85;;;;;;;5.52;61.48;102854.13;5078003;28;20025;-64
2022/04/17 02:50:16;;;;;;;8.77;6.68;;;;;;;5.45;62.09;102859.00;5078214;28;20021;-63
2022/04/17 02:52:42;;;;;;;10.18;6.85;;;;;;;5.42;61.92;102854.56;5077899;28;20029;-63
2022/04/17 02:55:08;;;;;;;11.52;7.13;;;;;;;5.36;62.39;102863.84;5077741;28;20121;-62
2022/04/17 02:57:34;;;;;;;9.73;6.88;;;;;;;5.33;62.17;102856.81;5077819;28;20040;-63
2022/04/17 03:00:00;;;;;;;9.85;7.20;;;;;;;5.28;63.32;102862.63;5077844;28;20041;-62
2022/04/17 03:07:54;;;;;;;11.23;7.18;;;;;;;5.16;62.87;102848.34;5077600;28;20051;-63
2022/04/17 03:10:20;;;;;;;8.57;6.30;;;;;;;5.18;60.74;102851.88;5077855;28;20371;-63
2022/04/17 03:12:45;;;;;;;9.40;6.55;;;;;;;5.16;59.98;102843.16;5076821;28;20028;-63
2022/04/17 03:15:11;;;;;;;11.95;6.93;;;;;;;5.08;59.55;102841.03;5077553;28;20075;-63
2022/04/17 03:17:37;;;;;;;9.52;6.88;;;;;;;5.10;59.79;102849.78;5077613;28;20063;-65
2022/04/17 03:20:03;;;;;;;11.27;6.75;;;;;;;5.03;59.27;102843.44;5077295;28;20105;-64
2022/04/17 03:22:29;;;;;;;10.20;7.00;;;;;;;5.08;59.33;102839.34;5077580;28;20032;-63
2022/04/17 03:24:54;;;;;;;9.60;6.93;;;;;;;5.05;59.41;102840.91;5077449;28;20024;-64
2022/04/17 03:27:19;;;;;;;8.75;6.53;;;;;;;5.03;61.25;102838.25;5077632;28;20115;-63
2022/04/17 03:29:45;;;;;;;9.90;7.18;;;;;;;5.03;61.86;102840.84;5077075;28;20044;-63
2022/04/17 03:32:10;;;;;;;12.63;6.68;;;;;;;5.03;62.34;102835.66;5077346;28;20508;-63
2022/04/17 03:34:36;;;;;;;9.40;6.55;;;;;;;4.88;61.96;102830.72;5077265;28;20033;-63
2022/04/17 03:37:02;;;;;;;12.38;7.18;;;;;;;4.79;62.35;102839.84;5077361;28;20391;-63
2022/04/17 03:39:27;;;;;;;10.85;7.05;;;;;;;4.74;62.04;102836.16;5077088;28;20032;-62
2022/04/17 03:41:53;;;;;;;10.15;6.75;;;;;;;4.60;62.68;102842.47;5077426;28;20368;-63
2022/04/17 03:44:19;;;;;;;7.90;6.13;;;;;;;4.50;62.89;102830.84;5077118;28;20028;-62
2022/04/17 03:46:45;;;;;;;9.40;6.65;;;;;;;4.36;63.46;102813.78;5077227;28;20040;-63
2022/04/17 03:49:11;;;;;;;10.52;6.75;;;;;;;4.44;63.53;102825.38;5076875;28;20040;-63
2022/04/17 03:51:36;;;;;;;9.25;6.63;;;;;;;4.40;63.19;102819.16;5076813;28;20481;-64
2022/04/17 03:54:02;;;;;;;8.88;6.95;;;;;;;4.40;63.14;102829.53;5076641;28;20071;-63
2022/04/17 03:56:27;;;;;;;10.18;6.70;;;;;;;4.16;63.01;102823.25;5076653;28;20040;-63
2022/04/17 03:58:52;;;;;;;11.82;7.50;;;;;;;4.03;64.85;102831.31;5076799;28;20180;-63
2022/04/17 04:01:18;;;;;;;10.25;7.00;;;;;;;4.04;63.98;102833.97;5076888;28;20420;-62
2022/04/17 04:03:43;;;;;;;10.60;6.75;;;;;;;4.14;65.30;102835.28;5076056;28;20109;-63
2022/04/17 04:06:08;;;;;;;10.73;6.75;;;;;;;4.18;64.26;102834.59;5076854;28;20031;-62
2022/04/17 04:08:33;;;;;;;10.02;6.60;;;;;;;4.26;65.52;102832.34;5076609;28;20359;-63
2022/04/17 04:10:59;;;;;;;10.40;6.47;;;;;;;4.26;65.00;102820.28;5076527;28;20093;-63
2022/04/17 04:13:24;;;;;;;11.18;6.20;;;;;;;4.33;64.63;102821.44;5076514;28;20039;-62
2022/04/17 04:15:49;;;;;;;8.32;6.28;;;;;;;4.29;64.07;102820.41;5076548;28;20032;-62
2022/04/17 04:18:14;;;;;;;9.80;6.95;;;;;;;4.13;64.32;102821.44;5076574;28;20332;-63
2022/04/17 04:20:40;;;;;;;9.20;6.70;;;;;;;4.01;66.12;102814.81;5075989;28;20020;-63
2022/04/17 04:23:05;;;;;;;11.18;6.45;;;;;;;3.90;66.52;102811.75;5076500;28;20364;-62
2022/04/17 04:25:30;;;;;;;9.35;6.50;;;;;;;3.87;65.54;102801.25;5075975;28;20060;-63
2022/04/17 04:30:39;;;;;;;8.85;6.47;;;;;;;4.02;66.71;102801.03;5076387;28;20093;-64
2022/04/17 04:33:05;;;;;;;8.63;6.47;;;;;;;3.97;66.01;102810.34;5075866;28;20045;-62
2022/04/17 04:35:30;;;;;;;8.60;6.13;;;;;;;3.97;65.24;102798.28;5076244;28;20435;-63
2022/04/17 04:37:56;;;;;;;9.70;6.85;;;;;;;3.84;65.77;102799.41;5075912;28;20037;-63
2022/04/17 04:40:22;;;;;;;9.40;7.22;;;;;;;3.83;65.86;102801.91;5076003;28;20036;-63
2022/04/17 04:42:48;;;;;;;10.95;7.15;;;;;;;3.78;66.36;102801.72;5075805;28;20035;-63
2022/04/17 04:47:58;;;;;;;12.23;7.22;;;;;;;3.66;65.85;102800.25;5076066;28;20519;-63
2022/04/17 04:50:24;;;;;;;12.30;7.68;;;;;;;3.54;65.52;102798.00;5075935;28;20029;-62
2022/04/17 04:52:49;;;;;;;10.57;7.38;;;;;;;3.47;66.61;102801.09;5075948;28;20162;-64
2022/04/17 04:55:14;;;;;;;9.57;7.22;;;;;;;3.40;67.11;102799.06;5075793;28;20028;-63
2022/04/17 04:57:39;;;;;;;12.60;7.70;;;;;;;3.34;67.38;102796.19;5075676;28;20032;-63
2022/04/17 05:00:07;;;;;;;14.27;8.27;;;;;;;3.31;67.90;102803.78;5075723;28;20116;-64
2022/04/17 05:02:34;;;;;;;11.40;7.30;;;;;;;3.21;67.61;102788.66;5075226;28;20028;-64
2022/04/17 05:04:59;;;;;;;15.35;7.55;;;;;;;3.33;68.06;102795.28;5075535;28;20036;-64
2022/04/17 05:07:25;;;;;;;13.38;6.93;;;;;;;3.28;68.01;102798.50;5075637;28;20033;-64
2022/04/17 05:09:50;;;;;;;10.40;7.20;;;;;;;3.44;69.28;102809.63;5075482;28;20033;-62
2022/04/17 05:12:15;;;;;;;11.73;6.95;;;;;;;3.56;69.12;102801.56;5075400;28;20064;-63
2022/04/17 05:14:41;;;;;;;10.07;7.40;;;;;;;3.68;68.20;102809.88;5075588;28;20037;-63
2022/04/17 05:17:08;;;;;;;11.10;7.78;;;;;;;3.75;68.75;102806.78;5075414;28;20044;-62
2022/04/17 05:19:33;;;;;;;9.55;6.90;;;;;;;3.83;68.83;102800.22;5075164;28;20368;-62
2022/04/17 05:21:59;;;;;;;9.43;6.93;;;;;;;3.89;69.01;102807.38;5075494;28;20028;-63
2022/04/17 05:24:25;;;;;;;12.55;7.20;;;;;;;3.91;68.27;102799.69;5075287;28;20352;-61
2022/04/17 05:26:51;;;;;;;10.20;7.13;;;;;;;3.95;67.66;102799.03;5075541;28;20406;-62
2022/04/17 05:29:17;;;;;;;10.35;7.30;;;;;;;4.02;67.82;102808.81;5075270;28;20032;-62
2022/04/17 05:31:42;;;;;;;10.38;6.70;;;;;;;4.09;67.93;102805.69;5075244;28;20343;-62
2022/04/17 05:34:07;;;;;;;9.75;6.45;;;;;;;4.13;68.45;102797.25;5075180;28;20056;-63
2022/04/17 05:36:33;;;;;;;9.65;6.75;;;;;;;4.29;67.55;102802.28;5063088;28;20036;-61
2022/04/17 05:38:58;;;;;;;10.85;6.68;;;;;;;5.31;66.52;102800.44;5055363;28;20082;-63
2022/04/17 05:41:24;;;;;;;9.35;6.05;;;;;;;6.65;60.64;102795.91;5055205;28;20033;-65
2022/04/17 05:43:50;;;;;;;10.18;6.57;;;;;;;7.64;57.76;102789.53;5054794;28;20028;-64
2022/04/17 05:46:16;;;;;;;10.63;5.88;;;;;;;8.28;54.43;102786.19;5055272;28;20071;-65
2022/04/17 05:48:42;;;;;;;8.40;6.15;;;;;;;9.02;52.76;102792.44;5054944;28;20029;-64
2022/04/17 05:51:07;;;;;;;9.35;6.32;;;;;;;9.36;50.40;102794.13;5054975;28;20032;-64
2022/04/17 05:53:33;;;;;;;11.13;6.30;;;;;;;9.70;50.16;102784.41;5055032;28;20036;-64
2022/04/17 05:55:59;;;;;;;8.77;5.72;;;;;;;9.68;49.35;102783.50;5054768;28;20037;-63
2022/04/17 05:58:24;;;;;;;11.50;6.00;;;;;;;9.67;48.11;102786.97;5054200;28;20044;-63
2022/04/17 06:00:49;;;;;;;8.82;5.95;;;;;;;9.86;48.23;102788.25;5053831;28;20029;-62
2022/04/17 06:03:15;;;;;;;7.70;5.80;;;;;;;9.56;47.52;102789.34;5054777;28;20410;-64
2022/04/17 06:05:41;;;;;;;6.70;5.47;;;;;;;9.06;47.61;102786.44;5054601;28;20040;-64
2022/04/17 06:08:06;;;;;;;8.85;5.90;;;;;;;9.02;48.76;102775.88;5055047;28;20102;-63
2022/04/17 06:10:32;;;;;;;6.95;5.43;;;;;;;9.46;47.70;102783.88;5054636;28;20120;-63
2022/04/17 06:12:57;;;;;;;7.32;5.60;;;;;;;10.05;47.17;102775.53;5054741;28;20347;-63
2022/04/17 06:15:22;;;;;;;7.15;5.40;;;;;;;10.01;46.35;102792.06;5059609;28;20047;-66
2022/04/17 06:17:47;;;;;;;7.47;5.40;;;;;;;10.29;46.09;102776.91;5069129;28;20028;-63
2022/04/17 06:20:14;;;;;;;7.32;5.50;;;;;;;10.26;45.09;102788.19;5074398;28;20043;-63
2022/04/17 06:22:40;;;;;;;7.80;5.50;;;;;;;9.95;45.86;102784.06;5074291;28;20036;-64
2022/04/17 06:25:07;;;;;;;9.88;5.57;;;;;;;9.83;46.52;102786.44;5068362;28;20067;-63
2022/04/17 06:27:42;;;;;;;6.07;4.90;;;;;;;10.13;45.58;102776.59;5054046;28;20032;-63
2022/04/17 06:30:19;;;;;;;7.95;5.03;;;;;;;9.87;46.02;102774.31;5053682;28;20060;-63
2022/04/17 06:32:45;;;;;;;5.97;5.05;;;;;;;9.27;46.92;102773.03;5054217;28;20068;-64
2022/04/17 06:35:13;;;;;;;8.98;5.03;;;;;;;9.02;48.10;102778.50;5054604;28;20029;-63
2022/04/17 06:37:48;;;;;;;6.85;5.03;;;;;;;9.18;48.25;102770.19;5054647;28;20116;-63
2022/04/17 06:40:16;;;;;;;6.05;4.35;;;;;;;9.00;47.99;102767.16;5054317;28;20028;-64
2022/04/17 06:42:41;;;;;;;9.07;5.03;;;;;;;8.80;48.41;102774.50;5054072;28;20455;-64
2022/04/17 06:45:07;;;;;;;6.70;4.78;;;;;;;8.81;48.30;102764.94;5063762;28;20040;-62
2022/04/17 06:47:32;;;;;;;7.35;4.68;;;;;;;9.02;47.79;102778.50;5075703;28;20060;-63
2022/04/17 06:49:58;;;;;;;6.97;4.50;;;;;;;9.37;46.86;102774.97;5078421;28;20462;-63
2022/04/17 06:52:23;;;;;;;8.02;4.47;;;;;;;10.01;45.74;102767.63;5078293;28;20025;-62
2022/04/17 06:54:48;;;;;;;6.20;4.30;;;;;;;9.91;44.70;102766.53;5066324;28;20097;-63
2022/04/17 06:57:13;;;;;;;6.53;4.25;;;;;;;9.65;46.90;102773.88;5067334;28;20360;-64
2022/04/17 06:59:39;;;;;;;8.75;3.78;;;;;;;9.50;45.89;102777.88;5067096;28;20033;-63
2022/04/17 07:02:05;;;;;;;5.93;3.90;;;;;;;9.45;46.35;102763.81;5067143;28;20049;-63
2022/04/17 07:04:30;;;;;;;6.20;3.92;;;;;;;9.52;45.45;102766.63;5064118;28;20060;-62
2022/04/17 07:06:55;;;;;;;7.55;4.43;;;;;;;9.81;45.23;102774.19;5056734;28;20056;-63
2022/04/17 07:09:21;;;;;;;6.50;4.13;;;;;;;10.27;44.29;102771.66;5065013;28;20040;-63
2022/04/17 07:11:46;;;;;;;5.32;3.92;;;;;;;10.72;43.58;102762.88;5069780;28;20164;-63
2022/04/17 07:14:14;;;;;;;5.00;3.80;;;;;;;11.05;43.09;102763.41;5058574;28;20047;-64
2022/04/17 07:16:40;;;;;;;6.43;3.80;;;;;;;11.14;42.63;102752.16;5065663;28;20041;-63
2022/04/17 07:19:05;;;;;;;6.13;3.83;;;;;;;10.99;42.33;102759.78;5064512;28;20524;-63
2022/04/17 07:21:31;;;;;;;7.07;4.03;;;;;;;10.74;42.65;102753.25;5066214;28;20017;-64
2022/04/17 07:23:57;;;;;;;5.88;3.78;;;;;;;10.64;42.68;102749.63;5073880;28;20367;-63
2022/04/17 07:26:23;;;;;;;5.70;4.18;;;;;;;10.50;42.92;102742.41;5075633;28;20025;-64
2022/04/17 07:28:48;;;;;;;6.10;3.90;;;;;;;10.45;43.89;102743.19;5075578;28;20040;-64
2022/04/17 07:31:13;;;;;;;6.30;4.30;;;;;;;10.38;44.34;102741.34;5075238;28;20048;-64
2022/04/17 07:33:38;;;;;;;7.10;4.07;;;;;;;10.36;44.21;102748.28;5076273;28;20049;-63
2022/04/17 07:36:04;;;;;;;5.78;4.20;;;;;;;10.28;43.94;102728.94;5066805;28;20432;-64
2022/04/17 07:38:29;;;;;;;4.55;3.90;;;;;;;10.36;44.90;102729.97;5059766;28;20043;-63
2022/04/17 07:40:54;;;;;;;6.20;3.90;;;;;;;10.36;44.25;102739.53;5057356;28;20394;-57
2022/04/17 07:43:19;;;;;;;5.78;4.13;;;;;;;10.36;44.42;102736.94;5057035;28;20033;-63
2022/04/17 07:45:45;;;;;;;6.80;4.18;;;;;;;10.32;43.83;102735.09;5074310;28;20067;-63
2022/04/17 07:48:10;;;;;;;6.05;3.88;;;;;;;10.33;43.62;102729.91;5076942;28;20032;-63
2022/04/17 07:50:36;;;;;;;5.55;4.03;;;;;;;10.36;44.36;102729.06;5076998;28;20339;-63
2022/04/17 07:53:01;;;;;;;5.95;4.25;;;;;;;10.49;43.20;102727.53;5076648;28;20036;-62
2022/04/17 07:55:27;;;;;;;5.90;4.13;;;;;;;10.51;43.28;102728.47;5073527;28;20042;-62
2022/04/17 07:58:06;;;;;;;6.03;3.97;;;;;;;10.58;43.92;102720.72;5070345;28;20047;-61
2022/04/17 08:00:57;;;;;;;5.18;4.18;;;;;;;10.58;42.84;102739.03;5066473;28;20097;-60
2022/04/17 08:06:00;;;;;;;5.80;4.10;;;;;;;10.69;43.68;102720.91;5076566;28;20448;-59
2022/04/17 08:08:26;;;;;;;7.60;4.00;;;;;;;10.79;43.55;102722.81;5076561;28;20052;-60
2022/04/17 08:10:51;;;;;;;5.47;4.18;;;;;;;10.91;44.06;102724.75;5076257;28;20074;-60
2022/04/17 08:13:16;;;;;;;6.55;3.88;;;;;;;11.04;44.05;102724.06;5076373;28;20059;-59
2022/04/17 08:15:42;;;;;;;4.82;4.00;;;;;;;11.12;42.79;102725.06;5076392;28;20024;-59
2022/04/17 08:18:08;;;;;;;4.80;3.90;;;;;;;11.16;42.74;102727.75;5076268;28;20150;-60
2022/04/17 08:20:33;;;;;;;6.75;4.38;;;;;;;11.13;42.66;102717.22;5076300;28;20033;-59
2022/04/17 08:22:58;;;;;;;4.22;3.80;;;;;;;11.27;43.07;102716.53;5075819;28;20115;-59
2022/04/17 08:25:23;;;;;;;6.15;3.97;;;;;;;11.36;42.44;102722.78;5075965;28;20107;-59
2022/04/17 08:27:52;;;;;;;5.47;3.67;;;;;;;11.52;42.62;102722.13;5076391;28;20039;-59
2022/04/17 08:30:22;;;;;;;5.18;3.80;;;;;;;11.64;41.96;102715.25;5076078;28;20036;-60
2022/04/17 08:32:48;;;;;;;6.32;3.80;;;;;;;11.76;41.89;102718.97;5075987;28;20101;-60
2022/04/17 08:35:14;;;;;;;4.78;3.97;;;;;;;11.75;41.47;102714.53;5075755;28;20028;-59
2022/04/17 08:37:39;;;;;;;5.40;3.80;;;;;;;11.81;42.06;102706.75;5075834;28;20054;-59
2022/04/17 08:40:05;;;;;;;5.97;3.60;;;;;;;11.97;40.93;102710.44;5076219;28;20036;-60
2022/04/17 08:42:31;;;;;;;5.63;3.80;;;;;;;11.98;40.24;102709.56;5076120;28;20037;-59
2022/04/17 08:44:57;;;;;;;6.78;3.70;;;;;;;12.00;40.17;102697.34;5075882;28;20028;-60
2022/04/17 08:47:22;;;;;;;4.35;3.22;;;;;;;12.29;39.05;102702.91;5075546;28;20428;-60
2022/04/17 08:49:48;;;;;;;4.25;3.35;;;;;;;12.53;39.48;102700.47;5076097;28;20032;-60
2022/04/17 08:52:16;;;;;;;4.10;3.50;;;;;;;13.19;37.91;102703.59;5075595;28;20438;-60
2022/04/17 08:54:43;;;;;;;6.70;3.63;;;;;;;13.96;36.62;102687.22;5075853;28;20036;-60
2022/04/17 08:57:08;;;;;;;4.70;3.40;;;;;;;15.25;35.28;102687.16;5075884;28;20103;-59
2022/04/17 08:59:34;;;;;;;3.72;2.90;;;;;;;16.10;34.73;102685.91;5075745;28;20067;-59
2022/04/17 09:02:08;;;;;;;4.65;3.30;;;;;;;16.17;33.42;102684.97;5075414;28;20371;-60
2022/04/17 09:04:33;;;;;;;3.33;2.85;;;;;;;16.11;31.75;102679.72;5074763;28;20071;-60
2022/04/17 09:07:00;;;;;;;4.63;3.30;;;;;;;15.66;32.63;102678.25;5066128;28;20060;-61
2022/04/17 09:09:25;;;;;;;6.30;3.40;;;;;;;15.28;34.00;102684.53;5063740;28;20025;-63
2022/04/17 09:11:55;;;;;;;6.05;3.22;;;;;;;14.88;34.53;102694.31;5073443;28;20356;-62
2022/04/17 09:14:20;;;;;;;5.32;3.20;;;;;;;14.73;35.95;102683.78;5073975;28;20044;-62
2022/04/17 09:16:49;;;;;;;5.57;2.90;;;;;;;14.69;36.25;102671.50;5076027;28;20435;-62
2022/04/17 09:19:16;;;;;;;5.55;3.08;;;;;;;14.73;35.21;102688.16;5075176;28;20442;-62
2022/04/17 09:21:42;;;;;;;6.15;3.00;;;;;;;14.66;35.23;102678.53;5075075;28;20056;-61
2022/04/17 09:24:14;;;;;;;5.90;3.20;;;;;;;14.53;35.16;102682.94;5075412;28;20399;-62
2022/04/17 09:26:50;;;;;;;;;;;;;;;14.55;36.24;102676.75;5075794;28;20081;-62
2022/04/17 09:29:29;;;;;;;3.35;2.67;;;;;;;14.57;35.70;102667.09;5075515;28;19923;-62
2022/04/17 09:32:02;;;;;;;3.97;3.30;;;;;;;14.56;34.40;102667.97;5075326;28;20078;-62
2022/04/17 09:34:58;;;;;;;5.25;3.08;;;;;;;14.63;34.20;102666.22;5073685;28;20170;-63
2022/04/17 09:37:27;;;;;;;5.50;3.00;;;;;;;14.83;35.01;102666.19;5075187;28;20036;-62
2022/04/17 09:39:52;;;;;;;5.68;3.33;;;;;;;15.04;34.69;102660.00;5071217;28;20029;-62
2022/04/17 09:42:25;;;;;;;6.15;3.38;;;;;;;15.08;34.80;102664.38;5065553;28;20442;-63
2022/04/17 09:44:54;;;;;;;3.78;3.22;;;;;;;15.26;34.85;102649.34;5071334;28;20036;-62
2022/04/17 09:47:27;;;;;;;6.40;3.60;;;;;;;15.26;35.13;102644.09;5071500;28;20032;-63
2022/04/17 09:49:57;;;;;;;4.97;3.50;;;;;;;15.36;34.64;102647.59;5090294;28;20020;-63
2022/04/17 09:52:44;;;;;;;4.57;3.20;;;;;;;15.34;35.15;102644.06;5095166;28;20032;-65
2022/04/17 09:55:10;;;;;;;4.97;3.05;;;;;;;15.36;34.37;102637.03;5094325;28;20065;-63
2022/04/17 09:57:38;;;;;;;4.55;3.33;;;;;;;15.51;34.50;102628.16;5094359;28;20470;-63
2022/04/17 10:00:11;;;;;;;5.25;2.90;;;;;;;15.53;34.39;102623.75;5094837;28;20298;-62
2022/04/17 10:02:40;;;;;;;4.70;3.20;;;;;;;15.44;33.06;102629.06;5094637;28;20111;-62
2022/04/17 10:05:10;;;;;;;4.63;3.15;;;;;;;15.43;33.74;102625.53;5094603;28;20040;-62
2022/04/17 10:07:41;;;;;;;3.78;3.30;;;;;;;15.33;33.70;102621.22;5094860;28;20036;-62
2022/04/17 10:10:07;;;;;;;3.10;2.72;;;;;;;15.61;34.94;102614.91;5094673;28;20443;-62
2022/04/17 10:12:36;;;;;;;5.28;3.30;;;;;;;15.55;33.74;102600.88;5093711;28;20028;-62
2022/04/17 10:15:07;;;;;;;3.58;3.00;;;;;;;15.69;34.04;102606.09;5094745;28;20124;-63
2022/04/17 10:17:33;;;;;;;3.85;3.10;;;;;;;15.76;33.62;102598.09;5094763;28;20114;-62
2022/04/17 10:20:06;;;;;;;4.88;3.10;;;;;;;15.91;33.50;102594.50;5095155;28;20068;-63
2022/04/17 10:22:33;;;;;;;5.57;2.80;;;;;;;15.93;33.18;102590.09;5095740;28;20024;-63
2022/04/17 10:24:59;;;;;;;3.67;2.42;;;;;;;16.04;31.67;102590.00;5098915;28;20363;-64
2022/04/17 10:27:28;;;;;;;3.50;3.20;;;;;;;16.09;32.06;102588.22;5098949;28;20435;-64
2022/04/17 10:30:02;;;;;;;4.50;2.70;;;;;;;16.07;32.23;102579.41;5098579;28;20112;-63
2022/04/17 10:32:33;;;;;;;3.78;2.78;;;;;;;15.96;32.11;102555.72;5098534;28;20059;-63
2022/04/17 10:35:20;;;;;;;3.92;2.65;;;;;;;16.06;32.15;102572.38;5098714;28;20027;-62
2022/04/17 10:38:10;;;;;;;4.55;2.70;;;;;;;16.28;31.86;102566.88;5098719;28;20063;-63
2022/04/17 10:40:36;;;;;;;3.15;2.50;;;;;;;16.25;31.00;102553.72;5098386;28;20035;-63
2022/04/17 10:43:03;;;;;;;3.92;2.42;;;;;;;16.41;31.26;102553.56;5098247;28;20036;-63
2022/04/17 10:45:31;;;;;;;3.70;2.35;;;;;;;16.40;31.35;102554.44;5098163;28;20024;-63
2022/04/17 10:48:05;;;;;;;4.07;2.80;;;;;;;16.46;31.29;102546.44;5097994;28;20032;-62
2022/04/17 10:50:40;;;;;;;3.38;2.42;;;;;;;16.63;31.10;102544.50;5098168;28;20423;-61
2022/04/17 10:53:27;;;;;;;7.03;2.22;;;;;;;16.56;31.08;102541.06;5097605;28;20040;-62
2022/04/17 10:56:06;;;;;;;4.50;2.20;;;;;;;16.64;30.27;102531.28;5098070;28;20351;-62
2022/04/17 10:58:50;;;;;;;3.17;2.15;;;;;;;16.78;30.34;102538.19;5098086;28;20024;-63
2022/04/17 11:01:15;;;;;;;4.35;2.20;;;;;;;16.87;29.62;102523.09;5097737;28;20039;-63
2022/04/17 11:03:54;;;;;;;5.07;2.50;;;;;;;16.80;30.15;102521.41;5097643;28;20036;-63
2022/04/17 11:06:32;;;;;;;2.80;2.40;;;;;;;16.91;28.81;102534.50;5098219;28;20032;-62
2022/04/17 11:09:09;;;;;;;3.92;1.92;;;;;;;16.85;28.82;102524.00;5097857;28;20043;-62
2022/04/17 11:11:39;;;;;;;4.72;2.28;;;;;;;16.85;28.21;102524.00;5097446;28;20039;-63
2022/04/17 11:14:11;;;;;;;2.10;1.90;;;;;;;16.93;28.26;102515.09;5097657;28;20028;-63
2022/04/17 11:16:59;;;;;;;3.95;2.10;;;;;;;16.89;28.33;102508.06;5098139;28;20081;-62
2022/04/17 11:19:33;;;;;;;2.33;1.90;;;;;;;16.89;27.83;102501.91;5097968;28;20024;-63
2022/04/17 11:22:02;;;;;;;3.38;1.80;;;;;;;17.03;26.63;102503.47;5097499;28;20039;-63
2022/04/17 11:24:30;;;;;;;3.17;2.20;;;;;;;17.09;27.01;102499.88;5097320;28;20114;-63
2022/04/17 11:26:55;;;;;;;4.28;2.50;;;;;;;17.19;28.05;102492.66;5097673;28;20024;-63
2022/04/17 11:29:37;;;;;;;3.60;2.30;;;;;;;17.20;28.52;102491.78;5097370;28;20043;-62
2022/04/17 11:32:25;;;;;;;5.10;2.80;;;;;;;17.29;28.32;102483.72;5097181;28;20035;-63
2022/04/17 11:34:54;;;;;;;6.05;2.70;;;;;;;17.29;29.29;102481.94;5095928;28;20072;-63
2022/04/17 11:37:20;;;;;;;3.83;2.30;;;;;;;17.50;28.54;102482.50;5097139;28;20040;-62
2022/04/17 11:39:46;;;;;;;4.40;2.10;;;;;;;17.53;27.52;102477.16;5097182;28;20028;-63
2022/04/17 11:42:12;;;;;;;2.97;2.05;;;;;;;17.53;27.66;102467.44;5097318;28;20032;-62
2022/04/17 11:44:42;;;;;;;3.63;2.03;;;;;;;17.57;27.59;102470.91;5096989;28;20101;-62